createdAt,value
2022-09-20T00:00:50.243Z,67.72
2022-09-20T00:05:49.987Z,68.17
2022-09-20T00:10:50.205Z,69.02
2022-09-20T00:15:49.916Z,69.68
2022-09-20T00:20:48.482Z,68.47
2022-09-20T00:25:56.158Z,69.94
2022-09-20T00:30:54.554Z,69.54
2022-09-20T00:35:53.653Z,69.16
2022-09-20T00:40:53.347Z,69.22
2022-09-20T00:45:52.639Z,68.56
2022-09-20T00:50:55.363Z,68.70
2022-09-20T00:55:55.874Z,67.53
2022-09-20T01:00:57.527Z,66.96
2022-09-20T01:05:55.702Z,67.46
2022-09-20T01:10:55.150Z,68.71
2022-09-20T01:15:54.809Z,69.16
2022-09-20T01:20:51.552Z,69.20
2022-09-20T01:26:05.905Z,69.44
2022-09-20T01:31:08.141Z,70.31
2022-09-20T01:36:06.497Z,70.42
2022-09-20T01:41:05.505Z,71.37
2022-09-20T01:46:05.544Z,71.82
2022-09-20T01:51:17.250Z,72.76
2022-09-20T01:56:34.200Z,73.17
2022-09-20T02:01:45.687Z,71.87
2022-09-20T02:07:04.717Z,72.14
2022-09-20T02:12:19.189Z,73.82
2022-09-20T02:17:20.407Z,73.02
2022-09-20T02:22:28.442Z,73.58
2022-09-20T02:27:30.711Z,74.45
2022-09-20T02:32:34.782Z,73.81
2022-09-20T02:37:54.513Z,73.61
2022-09-20T02:42:58.102Z,74.39
2022-09-20T02:47:57.863Z,73.65
2022-09-20T02:53:04.977Z,74.79
2022-09-20T02:58:09.920Z,73.34
2022-09-20T03:03:13.537Z,74.39
2022-09-20T03:08:28.514Z,73.71
2022-09-20T03:13:31.572Z,73.65
2022-09-20T03:18:33.657Z,73.03
2022-09-20T03:23:38.137Z,72.99
2022-09-20T03:28:42.172Z,73.03
2022-09-20T03:33:44.070Z,72.77
2022-09-20T03:38:58.305Z,72.09
2022-09-20T03:44:03.167Z,71.98
2022-09-20T03:49:10.401Z,70.53
2022-09-20T03:54:25.654Z,71.94
2022-09-20T03:59:35.701Z,71.92
2022-09-20T04:04:36.611Z,70.58
2022-09-20T04:09:51.663Z,70.86
2022-09-20T04:14:56.301Z,71.50
2022-09-20T04:20:01.781Z,73.03
2022-09-20T04:25:03.654Z,72.50
2022-09-20T04:30:04.934Z,71.18
2022-09-20T04:35:27.989Z,71.37
2022-09-20T04:40:40.789Z,71.04
2022-09-20T04:46:01.793Z,69.63
2022-09-20T04:51:13.497Z,70.11
2022-09-20T04:56:22.133Z,69.47
2022-09-20T05:01:43.140Z,70.36
2022-09-20T05:07:12.166Z,71.44
2022-09-20T05:12:42.619Z,71.00
2022-09-20T05:17:52.209Z,71.77
2022-09-20T05:23:03.778Z,72.08
2022-09-20T05:28:06.456Z,72.33
2022-09-20T05:33:26.608Z,72.55
2022-09-20T05:43:37.421Z,72.35
2022-09-20T05:48:38.952Z,72.18
2022-09-20T05:53:56.788Z,70.01
2022-09-20T05:59:08.207Z,70.12
2022-09-20T06:04:15.596Z,70.18
2022-09-20T06:09:46.459Z,69.68
2022-09-20T06:14:47.254Z,67.34
2022-09-20T06:19:47.044Z,67.69
2022-09-20T06:24:47.030Z,67.42
2022-09-20T06:30:04.986Z,66.97
2022-09-20T06:35:15.978Z,64.93
2022-09-20T06:41:22.300Z,64.08
2022-09-20T06:47:44.148Z,63.35
2022-09-20T06:53:30.825Z,63.19
2022-09-20T07:23:20.108Z,58.12
2022-09-20T07:28:19.334Z,57.94
2022-09-20T07:33:21.022Z,57.99
2022-09-20T07:38:20.374Z,57.57
2022-09-20T07:43:22.776Z,58.10
2022-09-20T07:48:27.103Z,56.51
2022-09-20T07:53:24.084Z,56.56
2022-09-20T07:58:26.356Z,53.92
2022-09-20T08:03:23.215Z,51.50
2022-09-20T08:08:23.508Z,54.52
2022-09-20T08:19:00.304Z,50.89
2022-09-20T08:24:05.444Z,50.64
2022-09-20T08:29:08.829Z,48.31
2022-09-20T08:34:08.677Z,46.91
2022-09-20T08:44:45.746Z,46.62
2022-09-20T08:49:46.138Z,46.07
2022-09-20T08:54:45.287Z,45.35
2022-09-20T08:59:44.137Z,44.73
2022-09-20T09:04:55.631Z,44.55
2022-09-20T09:10:04.967Z,43.06
2022-09-20T09:15:19.921Z,41.87
2022-09-20T09:20:27.354Z,41.16
2022-09-20T09:25:37.607Z,40.76
2022-09-20T09:43:53.931Z,40.02
2022-09-20T09:49:26.931Z,39.75
2022-09-20T09:54:27.881Z,39.51
2022-09-20T09:59:44.211Z,37.47
2022-09-20T10:04:53.848Z,38.28
2022-09-20T10:16:48.449Z,38.23
2022-09-20T10:21:55.823Z,38.67
2022-09-20T10:27:12.022Z,38.00
2022-09-20T10:32:21.277Z,38.35
2022-09-20T10:37:28.917Z,38.71
2022-09-20T10:42:53.195Z,37.45
2022-09-20T10:47:56.712Z,36.56
2022-09-20T10:53:06.157Z,37.59
2022-09-20T10:58:17.049Z,35.83
2022-09-20T11:03:29.730Z,35.73
2022-09-20T11:08:32.473Z,35.53
2022-09-20T11:14:06.695Z,35.17
2022-09-20T11:19:11.605Z,35.74
2022-09-20T11:24:14.555Z,35.24
2022-09-20T11:29:21.337Z,34.75
2022-09-20T11:34:21.096Z,33.85
2022-09-20T11:39:22.052Z,33.39
2022-09-20T11:44:21.193Z,33.30
2022-09-20T11:49:23.336Z,33.32
2022-09-20T11:54:47.660Z,34.09
2022-09-20T11:59:52.288Z,34.31
2022-09-20T12:04:52.849Z,34.29
2022-09-20T12:09:53.322Z,34.32
2022-09-20T12:15:00.769Z,34.04
2022-09-20T12:19:57.526Z,35.20
2022-09-20T12:25:15.195Z,35.08
2022-09-20T12:30:20.340Z,34.90
2022-09-20T12:35:38.738Z,35.65
2022-09-20T12:40:38.497Z,36.34
2022-09-20T12:45:36.821Z,37.21
2022-09-20T12:50:53.728Z,36.08
2022-09-20T12:55:54.502Z,36.26
2022-09-20T13:01:14.436Z,35.80
2022-09-20T13:06:26.744Z,36.03
2022-09-20T13:11:24.546Z,36.39
2022-09-20T13:16:26.406Z,36.07
2022-09-20T13:21:23.731Z,36.00
2022-09-20T13:26:23.622Z,36.71
2022-09-20T13:31:44.777Z,36.41
2022-09-20T13:37:04.204Z,36.50
2022-09-20T13:42:06.496Z,36.37
2022-09-20T13:47:06.996Z,36.21
2022-09-20T13:52:16.882Z,35.85
2022-09-20T13:57:21.447Z,36.19
2022-09-20T14:02:23.047Z,36.35
2022-09-20T14:07:20.319Z,37.04
2022-09-20T14:12:18.856Z,36.59
2022-09-20T14:17:19.846Z,36.89
2022-09-20T14:22:25.169Z,36.95
2022-09-20T14:27:23.547Z,36.72
2022-09-20T14:32:31.394Z,36.79
2022-09-20T14:37:30.133Z,36.84
2022-09-20T14:42:31.531Z,36.44
2022-09-20T14:47:29.323Z,35.81
2022-09-20T14:52:35.185Z,35.40
2022-09-20T14:57:38.407Z,37.58
2022-09-20T15:02:35.726Z,39.66
2022-09-20T15:07:32.555Z,40.32
2022-09-20T15:12:29.355Z,39.32
2022-09-20T15:17:28.293Z,39.16
2022-09-20T15:22:25.849Z,39.28
2022-09-20T15:27:28.199Z,39.53
2022-09-20T15:32:25.411Z,39.74
2022-09-20T15:37:23.308Z,40.10
2022-09-20T15:42:23.362Z,41.86
2022-09-20T15:47:35.336Z,43.66
2022-09-20T15:52:35.705Z,45.10
2022-09-20T15:57:34.321Z,45.67
2022-09-20T16:02:31.292Z,45.43
2022-09-20T16:07:28.554Z,45.77
2022-09-20T16:12:27.196Z,45.73
2022-09-20T16:17:44.444Z,45.53
2022-09-20T16:22:41.541Z,44.68
2022-09-20T16:27:40.220Z,43.68
2022-09-20T16:32:37.019Z,42.90
2022-09-20T16:37:45.869Z,43.75
2022-09-20T16:42:51.501Z,44.97
2022-09-20T16:47:49.576Z,47.07
2022-09-20T16:52:46.653Z,46.18
2022-09-20T16:57:48.378Z,46.09
2022-09-20T17:02:49.480Z,45.93
2022-09-20T17:07:47.513Z,45.37
2022-09-20T17:12:47.311Z,45.67
2022-09-20T17:17:44.602Z,47.17
2022-09-20T17:22:42.603Z,46.25
2022-09-20T17:27:42.388Z,46.83
2022-09-20T17:32:52.672Z,46.13
2022-09-20T17:38:12.816Z,45.04
2022-09-20T17:43:15.030Z,45.70
2022-09-20T17:48:15.031Z,48.97
2022-09-20T17:53:11.760Z,47.76
2022-09-20T17:58:11.009Z,48.30
2022-09-20T18:03:07.768Z,47.81
2022-09-20T18:08:08.725Z,47.07
2022-09-20T18:13:06.422Z,46.88
2022-09-20T18:18:09.235Z,46.00
2022-09-20T18:23:09.261Z,45.63
2022-09-20T18:28:08.283Z,44.49
2022-09-20T18:33:08.441Z,45.14
2022-09-20T18:38:07.084Z,45.75
2022-09-20T18:43:04.881Z,45.66
2022-09-20T18:48:01.755Z,45.52
2022-09-20T18:52:59.248Z,45.88
2022-09-20T18:58:02.932Z,46.19
2022-09-20T19:03:09.991Z,46.30
2022-09-20T19:08:11.937Z,46.75
2022-09-20T19:13:19.735Z,47.47
2022-09-20T19:18:30.840Z,47.49
2022-09-20T19:23:47.317Z,46.47
2022-09-20T19:28:45.274Z,47.13
2022-09-20T19:33:48.042Z,47.15
2022-09-20T19:38:50.069Z,46.75
2022-09-20T19:43:59.626Z,46.59
2022-09-20T19:49:06.887Z,47.73
2022-09-20T19:54:03.904Z,47.25
2022-09-20T19:59:09.164Z,47.03
2022-09-20T20:04:09.746Z,47.81
2022-09-20T20:09:11.422Z,48.36
2022-09-20T20:14:18.297Z,49.23
2022-09-20T20:19:36.697Z,50.11
2022-09-20T20:24:41.490Z,50.08
2022-09-20T20:29:46.298Z,50.69
2022-09-20T20:34:54.746Z,50.21
2022-09-20T20:39:51.581Z,50.35
2022-09-20T20:44:56.591Z,50.93
2022-09-20T20:49:54.606Z,50.63
2022-09-20T20:54:54.500Z,51.04
2022-09-20T20:59:55.233Z,51.66
2022-09-20T21:04:55.737Z,51.03
2022-09-20T21:09:54.642Z,51.45
2022-09-20T21:14:53.591Z,51.11
2022-09-20T21:19:54.925Z,50.90
2022-09-20T21:24:55.517Z,50.26
2022-09-20T21:29:53.996Z,52.01
2022-09-20T21:34:50.740Z,52.26
2022-09-20T21:39:47.611Z,51.49
2022-09-20T21:44:44.398Z,51.13
2022-09-20T21:49:41.887Z,51.51
2022-09-20T21:54:41.660Z,51.56
2022-09-20T21:59:39.887Z,52.75
2022-09-20T22:04:36.716Z,52.73
2022-09-20T22:09:34.215Z,52.65
2022-09-20T22:14:31.248Z,53.23
2022-09-20T22:19:28.023Z,53.88
2022-09-20T22:24:24.767Z,53.84
2022-09-20T22:29:24.485Z,53.95
2022-09-20T22:34:24.218Z,54.74
2022-09-20T22:39:20.933Z,54.81
2022-09-20T22:44:17.795Z,55.56
2022-09-20T22:49:17.166Z,56.06
2022-09-20T22:54:14.000Z,55.77
2022-09-20T22:59:14.079Z,55.77
2022-09-20T23:04:12.474Z,55.19
2022-09-20T23:09:11.133Z,54.70
2022-09-20T23:14:12.765Z,55.30
2022-09-20T23:19:12.020Z,55.67
2022-09-20T23:24:13.631Z,56.50
2022-09-20T23:29:14.702Z,56.15
2022-09-20T23:34:15.055Z,56.48
2022-09-20T23:39:15.087Z,57.26
2022-09-20T23:44:11.822Z,57.28
2022-09-20T23:49:10.949Z,57.14
2022-09-20T23:54:07.655Z,56.53
2022-09-20T23:59:05.019Z,57.16
